sensor_id;sensor_type;location;lat;lon;timestamp;noise_LAeq;noise_LA_min;noise_LA_max;noise_LA01;noise_LA95
69668;Laerm;66534;52.370;4.832;2023-02-28T00:00:06;40.54;35.27;46.31;;
69668;Laerm;66534;52.370;4.832;2023-02-28T00:00:43;42.81;37.28;47.79;;
69668;Laerm;66534;52.370;4.832;2023-02-28T00:01:14;42.45;36.29;52.94;;
69668;Laerm;66534;52.370;4.832;2023-02-28T00:01:45;44.42;37.52;53.85;;
69668;Laerm;66534;52.370;4.832;2023-02-28T00:02:16;41.33;36.90;46.15;;
69668;Laerm;66534;52.370;4.832;2023-02-28T00:02:48;39.61;36.34;42.40;;
69668;Laerm;66534;52.370;4.832;2023-02-28T00:03:18;43.79;36.23;53.61;;
69668;Laerm;66534;52.370;4.832;2023-02-28T00:03:48;39.34;36.05;43.21;;
69668;Laerm;66534;52.370;4.832;2023-02-28T00:04:19;37.47;34.65;41.32;;
69668;Laerm;66534;52.370;4.832;2023-02-28T00:04:49;38.99;36.04;46.85;;
69668;Laerm;66534;52.370;4.832;2023-02-28T00:05:24;41.24;35.06;54.50;;
69668;Laerm;66534;52.370;4.832;2023-02-28T00:05:55;39.13;36.24;42.30;;
69668;Laerm;66534;52.370;4.832;2023-02-28T00:06:26;36.41;34.04;39.25;;
69668;Laerm;66534;52.370;4.832;2023-02-28T00:06:56;37.70;34.67;42.43;;
69668;Laerm;66534;52.370;4.832;2023-02-28T00:07:27;36.70;34.59;39.14;;
69668;Laerm;66534;52.370;4.832;2023-02-28T00:07:58;36.67;34.51;39.73;;
69668;Laerm;66534;52.370;4.832;2023-02-28T00:08:28;40.53;35.19;46.14;;
69668;Laerm;66534;52.370;4.832;2023-02-28T00:08:58;39.32;35.57;44.61;;
69668;Laerm;66534;52.370;4.832;2023-02-28T00:09:29;38.12;34.67;41.47;;
69668;Laerm;66534;52.370;4.832;2023-02-28T00:09:59;40.33;36.36;44.49;;
69668;Laerm;66534;52.370;4.832;2023-02-28T00:10:31;40.39;36.02;45.09;;
69668;Laerm;66534;52.370;4.832;2023-02-28T00:11:12;52.40;34.79;59.95;;
69668;Laerm;66534;52.370;4.832;2023-02-28T00:11:43;43.01;36.43;49.51;;
69668;Laerm;66534;52.370;4.832;2023-02-28T00:12:13;38.22;35.86;40.70;;
69668;Laerm;66534;52.370;4.832;2023-02-28T00:12:44;40.44;36.77;44.42;;
69668;Laerm;66534;52.370;4.832;2023-02-28T00:13:14;41.13;36.84;45.22;;
69668;Laerm;66534;52.370;4.832;2023-02-28T00:13:46;45.07;36.00;52.01;;
69668;Laerm;66534;52.370;4.832;2023-02-28T00:14:17;37.22;34.76;46.55;;
69668;Laerm;66534;52.370;4.832;2023-02-28T00:14:48;39.44;36.16;43.57;;
69668;Laerm;66534;52.370;4.832;2023-02-28T00:15:19;38.96;34.83;44.01;;
69668;Laerm;66534;52.370;4.832;2023-02-28T00:15:59;38.13;34.77;46.74;;
69668;Laerm;66534;52.370;4.832;2023-02-28T00:16:29;42.12;38.02;46.73;;
69668;Laerm;66534;52.370;4.832;2023-02-28T00:17:00;39.08;35.62;48.82;;
69668;Laerm;66534;52.370;4.832;2023-02-28T00:17:30;40.55;36.38;54.94;;
69668;Laerm;66534;52.370;4.832;2023-02-28T00:18:01;40.13;36.89;47.72;;
69668;Laerm;66534;52.370;4.832;2023-02-28T00:18:32;44.42;40.29;48.82;;
69668;Laerm;66534;52.370;4.832;2023-02-28T00:19:03;44.36;37.90;50.04;;
69668;Laerm;66534;52.370;4.832;2023-02-28T00:19:33;43.97;36.31;55.86;;
69668;Laerm;66534;52.370;4.832;2023-02-28T00:20:05;41.44;36.81;47.33;;
69668;Laerm;66534;52.370;4.832;2023-02-28T00:20:40;41.31;36.69;46.79;;
69668;Laerm;66534;52.370;4.832;2023-02-28T00:21:10;39.12;36.32;44.52;;
69668;Laerm;66534;52.370;4.832;2023-02-28T00:21:40;39.47;36.81;43.22;;
69668;Laerm;66534;52.370;4.832;2023-02-28T00:22:11;38.05;35.92;40.44;;
69668;Laerm;66534;52.370;4.832;2023-02-28T00:22:47;45.17;36.29;54.80;;
69668;Laerm;66534;52.370;4.832;2023-02-28T00:23:17;49.84;43.52;58.50;;
69668;Laerm;66534;52.370;4.832;2023-02-28T00:23:48;46.89;40.67;54.00;;
69668;Laerm;66534;52.370;4.832;2023-02-28T00:24:19;38.92;35.73;44.97;;
69668;Laerm;66534;52.370;4.832;2023-02-28T00:24:49;37.55;35.11;40.14;;
69668;Laerm;66534;52.370;4.832;2023-02-28T00:25:22;37.00;34.59;39.42;;
69668;Laerm;66534;52.370;4.832;2023-02-28T00:25:53;42.25;35.19;50.43;;
69668;Laerm;66534;52.370;4.832;2023-02-28T00:26:24;45.54;36.19;63.49;;
69668;Laerm;66534;52.370;4.832;2023-02-28T00:26:54;40.47;36.23;47.85;;
69668;Laerm;66534;52.370;4.832;2023-02-28T00:27:24;39.45;35.75;44.46;;
69668;Laerm;66534;52.370;4.832;2023-02-28T00:27:55;41.00;35.33;52.48;;
69668;Laerm;66534;52.370;4.832;2023-02-28T00:28:25;42.02;35.92;48.73;;
69668;Laerm;66534;52.370;4.832;2023-02-28T00:28:56;42.14;36.50;51.80;;
69668;Laerm;66534;52.370;4.832;2023-02-28T00:29:26;40.20;36.99;44.36;;
69668;Laerm;66534;52.370;4.832;2023-02-28T00:29:57;38.63;35.45;50.29;;
69668;Laerm;66534;52.370;4.832;2023-02-28T00:30:27;38.95;36.10;44.25;;
69668;Laerm;66534;52.370;4.832;2023-02-28T00:30:58;41.95;37.01;47.07;;
69668;Laerm;66534;52.370;4.832;2023-02-28T00:31:30;42.71;36.03;51.48;;
69668;Laerm;66534;52.370;4.832;2023-02-28T00:32:00;37.43;34.41;41.51;;
69668;Laerm;66534;52.370;4.832;2023-02-28T00:32:31;36.94;34.13;39.69;;
69668;Laerm;66534;52.370;4.832;2023-02-28T00:33:01;40.35;34.86;50.45;;
69668;Laerm;66534;52.370;4.832;2023-02-28T00:33:32;38.56;35.21;44.38;;
69668;Laerm;66534;52.370;4.832;2023-02-28T00:34:02;36.16;33.78;39.17;;
69668;Laerm;66534;52.370;4.832;2023-02-28T00:34:33;36.66;34.64;39.45;;
69668;Laerm;66534;52.370;4.832;2023-02-28T00:35:09;39.01;35.29;46.86;;
69668;Laerm;66534;52.370;4.832;2023-02-28T00:35:39;37.09;34.42;43.10;;
69668;Laerm;66534;52.370;4.832;2023-02-28T00:36:11;37.77;34.22;42.23;;
69668;Laerm;66534;52.370;4.832;2023-02-28T00:36:41;38.43;34.83;42.80;;
69668;Laerm;66534;52.370;4.832;2023-02-28T00:37:15;36.78;34.25;40.68;;
69668;Laerm;66534;52.370;4.832;2023-02-28T00:37:47;37.23;35.02;39.43;;
69668;Laerm;66534;52.370;4.832;2023-02-28T00:38:18;39.99;35.87;45.26;;
69668;Laerm;66534;52.370;4.832;2023-02-28T00:38:49;39.35;36.12;46.06;;
69668;Laerm;66534;52.370;4.832;2023-02-28T00:39:20;40.01;37.44;44.25;;
69668;Laerm;66534;52.370;4.832;2023-02-28T00:39:50;41.08;34.86;54.27;;
69668;Laerm;66534;52.370;4.832;2023-02-28T00:40:20;37.90;34.66;43.76;;
69668;Laerm;66534;52.370;4.832;2023-02-28T00:40:51;36.35;34.09;40.40;;
69668;Laerm;66534;52.370;4.832;2023-02-28T00:41:21;38.53;33.93;46.22;;
69668;Laerm;66534;52.370;4.832;2023-02-28T00:41:52;38.06;35.22;40.58;;
69668;Laerm;66534;52.370;4.832;2023-02-28T00:42:23;36.26;34.32;39.89;;
69668;Laerm;66534;52.370;4.832;2023-02-28T00:42:54;36.07;33.80;42.99;;
69668;Laerm;66534;52.370;4.832;2023-02-28T00:43:24;38.92;33.97;45.32;;
69668;Laerm;66534;52.370;4.832;2023-02-28T00:43:55;39.24;34.55;46.29;;
69668;Laerm;66534;52.370;4.832;2023-02-28T00:44:25;37.15;35.43;40.64;;
69668;Laerm;66534;52.370;4.832;2023-02-28T00:44:55;43.79;34.08;53.20;;
69668;Laerm;66534;52.370;4.832;2023-02-28T00:45:26;39.38;34.98;44.51;;
69668;Laerm;66534;52.370;4.832;2023-02-28T00:45:56;39.60;35.17;44.47;;
69668;Laerm;66534;52.370;4.832;2023-02-28T00:46:27;36.70;34.53;39.14;;
69668;Laerm;66534;52.370;4.832;2023-02-28T00:46:58;36.66;34.14;39.57;;
69668;Laerm;66534;52.370;4.832;2023-02-28T00:47:29;39.54;35.51;44.35;;
69668;Laerm;66534;52.370;4.832;2023-02-28T00:47:59;35.41;33.31;40.95;;
69668;Laerm;66534;52.370;4.832;2023-02-28T00:48:30;42.68;34.52;48.50;;
69668;Laerm;66534;52.370;4.832;2023-02-28T00:49:00;36.80;34.22;40.45;;
69668;Laerm;66534;52.370;4.832;2023-02-28T00:49:31;43.04;36.02;54.13;;
69668;Laerm;66534;52.370;4.832;2023-02-28T00:50:01;40.05;34.79;44.73;;
69668;Laerm;66534;52.370;4.832;2023-02-28T00:50:32;37.11;34.14;42.90;;
69668;Laerm;66534;52.370;4.832;2023-02-28T00:51:03;36.06;34.20;41.66;;
69668;Laerm;66534;52.370;4.832;2023-02-28T00:51:33;35.63;33.37;38.03;;
69668;Laerm;66534;52.370;4.832;2023-02-28T00:52:04;36.43;34.23;38.27;;
69668;Laerm;66534;52.370;4.832;2023-02-28T00:52:35;37.63;33.97;41.69;;
69668;Laerm;66534;52.370;4.832;2023-02-28T00:53:05;39.04;35.73;43.84;;
69668;Laerm;66534;52.370;4.832;2023-02-28T00:53:36;42.89;37.35;48.03;;
69668;Laerm;66534;52.370;4.832;2023-02-28T00:54:06;38.37;34.76;44.07;;
69668;Laerm;66534;52.370;4.832;2023-02-28T00:54:36;37.28;34.10;40.26;;
69668;Laerm;66534;52.370;4.832;2023-02-28T00:55:07;41.65;34.23;50.97;;
69668;Laerm;66534;52.370;4.832;2023-02-28T00:55:37;44.13;36.38;51.34;;
69668;Laerm;66534;52.370;4.832;2023-02-28T00:56:08;38.60;35.41;42.06;;
69668;Laerm;66534;52.370;4.832;2023-02-28T00:56:38;37.59;35.73;39.58;;
69668;Laerm;66534;52.370;4.832;2023-02-28T00:57:09;36.71;33.78;43.79;;
69668;Laerm;66534;52.370;4.832;2023-02-28T00:57:40;40.00;34.00;47.15;;
69668;Laerm;66534;52.370;4.832;2023-02-28T00:58:10;35.77;33.36;39.88;;
69668;Laerm;66534;52.370;4.832;2023-02-28T00:58:40;35.36;33.30;37.62;;
69668;Laerm;66534;52.370;4.832;2023-02-28T00:59:12;35.72;33.47;41.12;;
69668;Laerm;66534;52.370;4.832;2023-02-28T00:59:42;35.66;32.89;39.91;;
69668;Laerm;66534;52.370;4.832;2023-02-28T01:00:13;35.12;33.05;37.70;;
69668;Laerm;66534;52.370;4.832;2023-02-28T01:00:44;36.69;33.57;42.20;;
69668;Laerm;66534;52.370;4.832;2023-02-28T01:01:18;37.60;33.68;49.84;;
69668;Laerm;66534;52.370;4.832;2023-02-28T01:01:49;37.90;34.53;40.87;;
69668;Laerm;66534;52.370;4.832;2023-02-28T01:02:21;40.17;36.49;43.78;;
69668;Laerm;66534;52.370;4.832;2023-02-28T01:02:52;44.49;37.18;50.67;;
69668;Laerm;66534;52.370;4.832;2023-02-28T01:03:22;41.46;35.17;48.23;;
69668;Laerm;66534;52.370;4.832;2023-02-28T01:03:52;39.16;35.22;47.64;;
69668;Laerm;66534;52.370;4.832;2023-02-28T01:04:23;37.17;34.84;40.06;;
69668;Laerm;66534;52.370;4.832;2023-02-28T01:04:53;35.27;33.52;36.93;;
69668;Laerm;66534;52.370;4.832;2023-02-28T01:05:24;35.22;33.19;39.31;;
69668;Laerm;66534;52.370;4.832;2023-02-28T01:05:54;35.36;33.46;38.45;;
69668;Laerm;66534;52.370;4.832;2023-02-28T01:06:25;38.20;32.97;44.38;;
69668;Laerm;66534;52.370;4.832;2023-02-28T01:06:55;36.10;34.03;39.55;;
69668;Laerm;66534;52.370;4.832;2023-02-28T01:07:26;37.45;34.05;46.67;;
69668;Laerm;66534;52.370;4.832;2023-02-28T01:07:56;36.11;33.19;38.63;;
69668;Laerm;66534;52.370;4.832;2023-02-28T01:08:26;35.72;33.51;37.70;;
69668;Laerm;66534;52.370;4.832;2023-02-28T01:08:57;35.76;33.61;38.27;;
69668;Laerm;66534;52.370;4.832;2023-02-28T01:09:28;41.51;34.66;50.72;;
69668;Laerm;66534;52.370;4.832;2023-02-28T01:09:58;45.87;36.22;52.17;;
69668;Laerm;66534;52.370;4.832;2023-02-28T01:10:29;39.93;35.64;44.75;;
69668;Laerm;66534;52.370;4.832;2023-02-28T01:11:11;37.96;34.42;42.85;;
69668;Laerm;66534;52.370;4.832;2023-02-28T01:11:43;39.66;35.02;44.24;;
69668;Laerm;66534;52.370;4.832;2023-02-28T01:12:14;40.51;34.85;46.12;;
69668;Laerm;66534;52.370;4.832;2023-02-28T01:12:44;36.08;34.09;37.94;;
69668;Laerm;66534;52.370;4.832;2023-02-28T01:13:15;36.22;34.13;38.96;;
69668;Laerm;66534;52.370;4.832;2023-02-28T01:13:46;36.65;34.49;39.43;;
69668;Laerm;66534;52.370;4.832;2023-02-28T01:14:17;39.99;34.02;49.68;;
69668;Laerm;66534;52.370;4.832;2023-02-28T01:14:48;36.05;33.71;38.71;;
69668;Laerm;66534;52.370;4.832;2023-02-28T01:15:18;36.05;33.45;43.03;;
69668;Laerm;66534;52.370;4.832;2023-02-28T01:15:51;36.11;33.32;50.28;;
69668;Laerm;66534;52.370;4.832;2023-02-28T01:16:22;36.71;33.98;40.54;;
69668;Laerm;66534;52.370;4.832;2023-02-28T01:16:52;48.76;35.92;61.50;;
69668;Laerm;66534;52.370;4.832;2023-02-28T01:17:23;40.26;34.84;50.46;;
69668;Laerm;66534;52.370;4.832;2023-02-28T01:17:53;36.46;34.75;38.62;;
69668;Laerm;66534;52.370;4.832;2023-02-28T01:18:24;36.93;34.41;39.24;;
69668;Laerm;66534;52.370;4.832;2023-02-28T01:18:55;36.32;34.09;39.46;;
69668;Laerm;66534;52.370;4.832;2023-02-28T01:19:25;35.77;33.86;38.25;;
69668;Laerm;66534;52.370;4.832;2023-02-28T01:19:56;37.83;34.18;42.78;;
69668;Laerm;66534;52.370;4.832;2023-02-28T01:20:26;38.45;35.15;44.28;;
69668;Laerm;66534;52.370;4.832;2023-02-28T01:20:56;40.99;35.91;45.83;;
69668;Laerm;66534;52.370;4.832;2023-02-28T01:21:27;35.83;33.91;37.61;;
69668;Laerm;66534;52.370;4.832;2023-02-28T01:22:00;34.94;33.14;36.90;;
69668;Laerm;66534;52.370;4.832;2023-02-28T01:22:31;35.26;32.91;37.80;;
69668;Laerm;66534;52.370;4.832;2023-02-28T01:23:01;37.81;34.75;43.32;;
69668;Laerm;66534;52.370;4.832;2023-02-28T01:23:32;35.60;33.84;37.78;;
69668;Laerm;66534;52.370;4.832;2023-02-28T01:24:03;38.42;34.79;42.91;;
69668;Laerm;66534;52.370;4.832;2023-02-28T01:24:34;38.24;34.73;46.08;;
69668;Laerm;66534;52.370;4.832;2023-02-28T01:25:05;35.83;33.66;38.34;;
69668;Laerm;66534;52.370;4.832;2023-02-28T01:25:35;38.91;34.07;47.13;;
69668;Laerm;66534;52.370;4.832;2023-02-28T01:26:15;42.37;35.53;50.50;;
69668;Laerm;66534;52.370;4.832;2023-02-28T01:26:46;39.75;34.16;50.49;;
69668;Laerm;66534;52.370;4.832;2023-02-28T01:27:16;36.86;33.97;41.20;;
69668;Laerm;66534;52.370;4.832;2023-02-28T01:27:46;36.39;34.62;38.85;;
69668;Laerm;66534;52.370;4.832;2023-02-28T01:28:17;37.91;34.54;42.29;;
69668;Laerm;66534;52.370;4.832;2023-02-28T01:28:48;36.15;33.21;39.42;;
69668;Laerm;66534;52.370;4.832;2023-02-28T01:29:19;35.14;33.31;37.76;;
69668;Laerm;66534;52.370;4.832;2023-02-28T01:29:50;36.14;33.79;39.88;;
69668;Laerm;66534;52.370;4.832;2023-02-28T01:30:21;35.42;33.64;37.27;;
69668;Laerm;66534;52.370;4.832;2023-02-28T01:30:51;35.72;33.60;38.47;;
69668;Laerm;66534;52.370;4.832;2023-02-28T01:31:23;37.30;34.40;39.61;;
69668;Laerm;66534;52.370;4.832;2023-02-28T01:31:53;40.82;37.08;47.91;;
69668;Laerm;66534;52.370;4.832;2023-02-28T01:32:24;44.58;38.46;53.56;;
69668;Laerm;66534;52.370;4.832;2023-02-28T01:33:13;38.39;34.09;47.15;;
69668;Laerm;66534;52.370;4.832;2023-02-28T01:33:43;39.73;35.91;46.84;;
69668;Laerm;66534;52.370;4.832;2023-02-28T01:34:14;41.94;34.28;53.26;;
69668;Laerm;66534;52.370;4.832;2023-02-28T01:34:44;35.82;33.71;37.78;;
69668;Laerm;66534;52.370;4.832;2023-02-28T01:35:15;36.02;33.64;38.60;;
69668;Laerm;66534;52.370;4.832;2023-02-28T01:35:45;35.64;33.62;38.79;;
69668;Laerm;66534;52.370;4.832;2023-02-28T01:36:23;45.64;35.38;55.68;;
69668;Laerm;66534;52.370;4.832;2023-02-28T01:36:54;37.31;33.07;42.55;;
69668;Laerm;66534;52.370;4.832;2023-02-28T01:37:24;34.74;32.62;36.65;;
69668;Laerm;66534;52.370;4.832;2023-02-28T01:37:55;36.07;33.62;38.73;;
69668;Laerm;66534;52.370;4.832;2023-02-28T01:38:25;37.20;34.39;42.03;;
69668;Laerm;66534;52.370;4.832;2023-02-28T01:38:56;39.66;36.31;45.40;;
69668;Laerm;66534;52.370;4.832;2023-02-28T01:39:26;36.99;32.55;48.35;;
69668;Laerm;66534;52.370;4.832;2023-02-28T01:39:57;34.72;32.69;40.79;;
69668;Laerm;66534;52.370;4.832;2023-02-28T01:40:27;34.80;33.15;37.41;;
69668;Laerm;66534;52.370;4.832;2023-02-28T01:40:58;34.55;32.65;36.73;;
69668;Laerm;66534;52.370;4.832;2023-02-28T01:41:31;37.27;33.98;43.48;;
69668;Laerm;66534;52.370;4.832;2023-02-28T01:42:01;37.39;33.49;61.60;;
69668;Laerm;66534;52.370;4.832;2023-02-28T01:42:32;36.71;33.19;41.25;;
69668;Laerm;66534;52.370;4.832;2023-02-28T01:43:02;35.97;33.57;39.88;;
69668;Laerm;66534;52.370;4.832;2023-02-28T01:43:55;36.56;32.84;43.01;;
69668;Laerm;66534;52.370;4.832;2023-02-28T01:45:35;41.65;36.01;49.56;;
69668;Laerm;66534;52.370;4.832;2023-02-28T01:46:05;37.41;34.68;40.66;;
69668;Laerm;66534;52.370;4.832;2023-02-28T01:46:36;37.67;33.82;43.54;;
69668;Laerm;66534;52.370;4.832;2023-02-28T01:47:06;38.17;34.57;43.23;;
69668;Laerm;66534;52.370;4.832;2023-02-28T01:47:40;37.09;33.87;41.40;;
69668;Laerm;66534;52.370;4.832;2023-02-28T01:48:12;36.92;33.76;40.89;;
69668;Laerm;66534;52.370;4.832;2023-02-28T01:49:10;36.86;33.16;42.48;;
69668;Laerm;66534;52.370;4.832;2023-02-28T01:49:42;36.34;33.65;42.27;;
69668;Laerm;66534;52.370;4.832;2023-02-28T01:50:17;37.16;33.91;43.13;;
69668;Laerm;66534;52.370;4.832;2023-02-28T01:50:49;37.90;34.38;42.98;;
69668;Laerm;66534;52.370;4.832;2023-02-28T01:51:59;34.69;32.75;38.53;;
69668;Laerm;66534;52.370;4.832;2023-02-28T01:52:30;35.27;32.99;37.48;;
69668;Laerm;66534;52.370;4.832;2023-02-28T01:53:05;36.83;33.71;42.57;;
69668;Laerm;66534;52.370;4.832;2023-02-28T01:53:47;37.79;34.88;41.11;;
69668;Laerm;66534;52.370;4.832;2023-02-28T01:54:24;44.58;37.63;50.65;;
69668;Laerm;66534;52.370;4.832;2023-02-28T01:54:59;36.35;32.64;42.09;;
69668;Laerm;66534;52.370;4.832;2023-02-28T01:55:31;38.40;33.50;47.09;;
69668;Laerm;66534;52.370;4.832;2023-02-28T01:56:06;40.65;32.78;47.57;;
69668;Laerm;66534;52.370;4.832;2023-02-28T01:56:37;35.48;33.36;38.05;;
69668;Laerm;66534;52.370;4.832;2023-02-28T01:57:13;37.63;33.66;45.32;;
69668;Laerm;66534;52.370;4.832;2023-02-28T01:57:50;37.12;32.20;44.35;;
69668;Laerm;66534;52.370;4.832;2023-02-28T01:58:22;34.13;32.30;36.93;;
69668;Laerm;66534;52.370;4.832;2023-02-28T01:58:54;37.39;33.25;43.37;;
69668;Laerm;66534;52.370;4.832;2023-02-28T01:59:38;35.58;33.57;38.37;;
69668;Laerm;66534;52.370;4.832;2023-02-28T02:00:20;36.38;32.36;42.94;;
69668;Laerm;66534;52.370;4.832;2023-02-28T02:00:52;38.07;34.66;42.91;;
69668;Laerm;66534;52.370;4.832;2023-02-28T02:01:26;35.56;32.98;45.54;;
69668;Laerm;66534;52.370;4.832;2023-02-28T02:01:57;34.48;32.55;36.66;;
69668;Laerm;66534;52.370;4.832;2023-02-28T02:02:28;37.19;33.33;46.00;;
69668;Laerm;66534;52.370;4.832;2023-02-28T02:03:04;34.79;32.72;37.87;;
69668;Laerm;66534;52.370;4.832;2023-02-28T02:03:35;35.16;32.94;38.30;;
69668;Laerm;66534;52.370;4.832;2023-02-28T02:04:06;37.17;33.99;40.06;;
69668;Laerm;66534;52.370;4.832;2023-02-28T02:04:45;35.36;32.47;44.19;;
69668;Laerm;66534;52.370;4.832;2023-02-28T02:05:22;37.66;33.73;44.49;;
69668;Laerm;66534;52.370;4.832;2023-02-28T02:05:53;36.17;33.66;39.31;;
69668;Laerm;66534;52.370;4.832;2023-02-28T02:06:36;37.69;33.76;44.37;;
69668;Laerm;66534;52.370;4.832;2023-02-28T02:07:07;36.13;33.92;38.97;;
69668;Laerm;66534;52.370;4.832;2023-02-28T02:07:40;35.22;33.09;37.41;;
69668;Laerm;66534;52.370;4.832;2023-02-28T02:08:17;38.41;34.03;44.45;;
69668;Laerm;66534;52.370;4.832;2023-02-28T02:08:48;35.72;33.95;37.74;;
69668;Laerm;66534;52.370;4.832;2023-02-28T02:09:19;41.91;32.87;52.52;;
69668;Laerm;66534;52.370;4.832;2023-02-28T02:09:49;44.15;35.56;52.41;;
69668;Laerm;66534;52.370;4.832;2023-02-28T02:10:40;38.07;34.04;44.36;;
69668;Laerm;66534;52.370;4.832;2023-02-28T02:11:11;38.85;34.63;46.24;;
69668;Laerm;66534;52.370;4.832;2023-02-28T02:11:44;36.81;34.39;39.70;;
69668;Laerm;66534;52.370;4.832;2023-02-28T02:14:51;37.64;33.48;45.94;;
69668;Laerm;66534;52.370;4.832;2023-02-28T02:16:17;33.91;32.22;35.89;;
69668;Laerm;66534;52.370;4.832;2023-02-28T02:18:04;35.26;32.89;38.91;;
69668;Laerm;66534;52.370;4.832;2023-02-28T02:18:48;37.22;34.14;43.14;;
69668;Laerm;66534;52.370;4.832;2023-02-28T02:22:27;35.20;33.29;37.32;;
69668;Laerm;66534;52.370;4.832;2023-02-28T02:24:02;40.32;35.07;51.44;;
69668;Laerm;66534;52.370;4.832;2023-02-28T02:25:53;33.92;31.69;36.57;;
69668;Laerm;66534;52.370;4.832;2023-02-28T02:27:25;41.04;32.73;55.65;;
69668;Laerm;66534;52.370;4.832;2023-02-28T02:29:42;34.71;32.63;46.30;;
69668;Laerm;66534;52.370;4.832;2023-02-28T02:32:18;37.04;32.45;44.29;;
69668;Laerm;66534;52.370;4.832;2023-02-28T02:33:09;34.27;32.27;36.72;;
69668;Laerm;66534;52.370;4.832;2023-02-28T02:34:27;33.81;31.68;36.69;;
69668;Laerm;66534;52.370;4.832;2023-02-28T02:36:07;36.72;32.76;45.23;;
69668;Laerm;66534;52.370;4.832;2023-02-28T02:37:17;35.62;31.79;44.92;;
69668;Laerm;66534;52.370;4.832;2023-02-28T02:39:42;33.86;32.16;37.24;;
69668;Laerm;66534;52.370;4.832;2023-02-28T02:40:30;35.18;31.95;39.87;;
69668;Laerm;66534;52.370;4.832;2023-02-28T02:41:23;34.68;31.77;40.78;;
69668;Laerm;66534;52.370;4.832;2023-02-28T02:42:00;38.35;33.23;45.94;;
69668;Laerm;66534;52.370;4.832;2023-02-28T02:44:01;35.13;32.03;44.16;;
69668;Laerm;66534;52.370;4.832;2023-02-28T02:44:44;36.86;33.57;44.86;;
69668;Laerm;66534;52.370;4.832;2023-02-28T02:45:25;34.90;32.06;38.93;;
69668;Laerm;66534;52.370;4.832;2023-02-28T02:46:04;34.96;32.01;38.90;;
69668;Laerm;66534;52.370;4.832;2023-02-28T02:46:45;37.04;32.80;45.79;;
69668;Laerm;66534;52.370;4.832;2023-02-28T02:47:20;41.12;32.91;51.54;;
69668;Laerm;66534;52.370;4.832;2023-02-28T02:47:55;34.84;32.81;37.45;;
69668;Laerm;66534;52.370;4.832;2023-02-28T02:48:30;33.86;31.92;36.72;;
69668;Laerm;66534;52.370;4.832;2023-02-28T02:49:04;33.91;31.80;36.47;;
69668;Laerm;66534;52.370;4.832;2023-02-28T02:49:38;34.11;32.11;36.10;;
69668;Laerm;66534;52.370;4.832;2023-02-28T02:50:20;38.12;34.02;45.53;;
69668;Laerm;66534;52.370;4.832;2023-02-28T02:50:55;36.42;33.19;41.95;;
69668;Laerm;66534;52.370;4.832;2023-02-28T02:51:27;39.08;33.52;45.64;;
69668;Laerm;66534;52.370;4.832;2023-02-28T02:52:04;36.42;33.20;39.49;;
69668;Laerm;66534;52.370;4.832;2023-02-28T02:52:40;35.46;33.05;38.40;;
69668;Laerm;66534;52.370;4.832;2023-02-28T02:53:13;38.14;34.63;43.17;;
69668;Laerm;66534;52.370;4.832;2023-02-28T02:53:49;37.75;34.54;43.33;;
69668;Laerm;66534;52.370;4.832;2023-02-28T02:54:28;37.01;34.28;40.27;;
69668;Laerm;66534;52.370;4.832;2023-02-28T02:54:59;44.79;34.11;50.68;;
69668;Laerm;66534;52.370;4.832;2023-02-28T02:55:36;36.60;33.38;39.74;;
69668;Laerm;66534;52.370;4.832;2023-02-28T02:56:09;34.44;32.06;37.11;;
69668;Laerm;66534;52.370;4.832;2023-02-28T02:56:44;34.33;32.59;37.91;;
69668;Laerm;66534;52.370;4.832;2023-02-28T02:57:21;35.33;31.82;41.40;;
69668;Laerm;66534;52.370;4.832;2023-02-28T02:57:58;35.47;33.23;39.77;;
69668;Laerm;66534;52.370;4.832;2023-02-28T02:58:37;34.00;31.62;42.38;;
69668;Laerm;66534;52.370;4.832;2023-02-28T02:59:13;33.88;31.56;37.41;;
69668;Laerm;66534;52.370;4.832;2023-02-28T02:59:55;34.44;32.36;36.47;;
69668;Laerm;66534;52.370;4.832;2023-02-28T03:00:31;34.35;32.61;36.15;;
69668;Laerm;66534;52.370;4.832;2023-02-28T03:01:04;34.93;32.88;37.07;;
69668;Laerm;66534;52.370;4.832;2023-02-28T03:01:36;36.29;33.32;41.62;;
69668;Laerm;66534;52.370;4.832;2023-02-28T03:02:12;36.92;32.67;41.93;;
69668;Laerm;66534;52.370;4.832;2023-02-28T03:02:45;37.90;33.95;44.04;;
69668;Laerm;66534;52.370;4.832;2023-02-28T03:03:18;35.92;33.29;40.37;;
69668;Laerm;66534;52.370;4.832;2023-02-28T03:04:14;36.22;33.00;44.61;;
69668;Laerm;66534;52.370;4.832;2023-02-28T03:04:51;35.06;32.09;39.46;;
69668;Laerm;66534;52.370;4.832;2023-02-28T03:05:26;34.10;32.34;35.77;;
69668;Laerm;66534;52.370;4.832;2023-02-28T03:06:00;34.56;32.67;36.80;;
69668;Laerm;66534;52.370;4.832;2023-02-28T03:06:31;37.51;32.74;44.72;;
69668;Laerm;66534;52.370;4.832;2023-02-28T03:07:01;35.62;33.06;37.43;;
69668;Laerm;66534;52.370;4.832;2023-02-28T03:07:32;35.68;33.33;40.26;;
69668;Laerm;66534;52.370;4.832;2023-02-28T03:08:04;35.79;32.99;39.09;;
69668;Laerm;66534;52.370;4.832;2023-02-28T03:08:37;34.50;32.81;36.03;;
69668;Laerm;66534;52.370;4.832;2023-02-28T03:09:08;36.92;33.10;42.66;;
69668;Laerm;66534;52.370;4.832;2023-02-28T03:09:38;36.51;33.32;41.76;;
69668;Laerm;66534;52.370;4.832;2023-02-28T03:10:29;36.64;32.61;42.92;;
69668;Laerm;66534;52.370;4.832;2023-02-28T03:11:02;34.13;32.06;36.38;;
69668;Laerm;66534;52.370;4.832;2023-02-28T03:11:35;35.14;33.31;37.12;;
69668;Laerm;66534;52.370;4.832;2023-02-28T03:12:11;38.21;34.03;42.12;;
69668;Laerm;66534;52.370;4.832;2023-02-28T03:12:51;37.30;33.95;43.48;;
69668;Laerm;66534;52.370;4.832;2023-02-28T03:15:31;35.54;33.11;46.72;;
69668;Laerm;66534;52.370;4.832;2023-02-28T03:17:57;34.95;32.57;42.19;;
69668;Laerm;66534;52.370;4.832;2023-02-28T03:19:00;35.10;32.54;45.82;;
69668;Laerm;66534;52.370;4.832;2023-02-28T03:19:51;34.75;32.46;42.36;;
69668;Laerm;66534;52.370;4.832;2023-02-28T03:22:14;37.55;32.54;44.71;;
69668;Laerm;66534;52.370;4.832;2023-02-28T03:23:19;38.86;32.56;49.78;;
69668;Laerm;66534;52.370;4.832;2023-02-28T03:24:04;36.96;33.12;54.01;;
69668;Laerm;66534;52.370;4.832;2023-02-28T03:25:37;37.92;32.89;49.22;;
69668;Laerm;66534;52.370;4.832;2023-02-28T03:26:22;35.83;32.30;42.06;;
69668;Laerm;66534;52.370;4.832;2023-02-28T03:27:08;34.48;31.98;41.48;;
69668;Laerm;66534;52.370;4.832;2023-02-28T03:27:42;35.08;32.46;37.74;;
69668;Laerm;66534;52.370;4.832;2023-02-28T03:28:22;35.33;32.87;37.55;;
69668;Laerm;66534;52.370;4.832;2023-02-28T03:29:04;36.43;32.77;41.38;;
69668;Laerm;66534;52.370;4.832;2023-02-28T03:29:48;45.94;33.55;56.97;;
69668;Laerm;66534;52.370;4.832;2023-02-28T03:30:38;35.34;32.61;43.10;;
69668;Laerm;66534;52.370;4.832;2023-02-28T03:31:44;33.95;32.31;35.38;;
69668;Laerm;66534;52.370;4.832;2023-02-28T03:32:36;34.36;32.53;37.01;;
69668;Laerm;66534;52.370;4.832;2023-02-28T03:33:18;34.17;31.67;36.69;;
69668;Laerm;66534;52.370;4.832;2023-02-28T03:34:38;35.03;32.66;42.20;;
69668;Laerm;66534;52.370;4.832;2023-02-28T03:35:16;38.54;32.69;46.35;;
69668;Laerm;66534;52.370;4.832;2023-02-28T03:36:00;36.96;32.82;43.40;;
69668;Laerm;66534;52.370;4.832;2023-02-28T03:36:37;33.66;31.87;36.14;;
69668;Laerm;66534;52.370;4.832;2023-02-28T03:37:19;33.61;31.56;38.16;;
69668;Laerm;66534;52.370;4.832;2023-02-28T03:39:21;41.94;32.90;54.02;;